El Centro Naf Airport
KNJK : now visible

Airfield :











YOU CAN JOIN US ON...

 
LOGIN :

Register | Disclaimer

   EN    FR    IT 

 









Legend :    VFR   Marginal VFR   IFR   Intensive IFR   Very Intensive IFR
Visi :
Ceiling :
>= 8 km
>= 3000ft
5 to 8 km
1000 to 3000 ft
1500m to 5 km
500 to 1000 ft
800 to 1500m
200 to 500 ft
< 800m
< 200 ft
Symbols :   Thunderstorms  Fog  Heavy snow  Heavy precipitations  Wind > 20 kt






- Airport Elevation : -42 ft


KNJK - El Centro Naf

CURRENT METAR :
  • 211556Z 36005KT 10SM CLR A2984 RMK AO2 SLP122 $

EXPIRED METARs :
  • 211456Z 36008KT 10SM CLR 23/09 A2982 RMK AO2 SLP115 T02280094 51017 $
  • 211356Z 36009KT 10SM CLR 18/M06 A2981 RMK AO2 SLP109 T01831056 $
  • 211256Z 32006KT 10SM CLR 20/M06 A2980 RMK AO2 SLP105 T02001056 $
  • 211156Z AUTO 28011KT 10SM CLR A2977 RMK AO2 SLP098 60000 52003 $

TAF TAF KNJK
Valid from the 21 at 07:00 until the 22 at 07:00 UTC


2107/2207 26012G20KT 9999 SKC 520009 QNH2972INS
BECMG 2113/2115 35009KT 9999 FEW080 FEW250 500000 QNH2970INS
BECMG 2201/2203 25012KT 9999 SKC QNH2971INS AUTOMATED SENSOR METWATCH 2106 TIL 2113 TX35/2123Z TN16/2113Z FS30217
KZLA FIR / North America



MET'MAP, your aeronautical weather chart ! - Copyright ORBIFLY December 2007 - Disclaimer

ORBIFLY MET'MAP TEAM :

Programming & Development : Alexandra Zaïnal
Original concept : Baudouin d'Aumeries
Technical & hardware support : Manuel Goepfert
Assistance : Marc-Olivier Méhu




SOURCES & CREDITS :

   NOAA       Earth
Advisory